Mayflower, Louisiana
Current Conditions -  °F | °C
As of 3:55 AM on Sunday 21 Dec 2014 (Local Time) from KHEZ Reporting Station
Clear Clear  
Wind Chill: 36°   Ceiling: Unl
Heat Index: 36°   Visibility: 9mi
Dew Point: 30°   Wind: 3mph
Humidity: 81%   Direction: 10°N
Pressure: 30.15"   Gusts: NA
Location:  31.9504°N, 91.3766°W
Report Text: KHEZ 210955Z AUTO 01003KT 9SM CLR 02/M01 A3015 RMK AO1
Loading
Personal Weather Stations






























Interactive Weather Map New forecast layout! Learn more

10-Day Weather Forecast

Advertisements
Track Severe Weather on mobile